Kota Cantik — 9V9693 — position and weather

sailwx.info

Track history (hours):
 
Tides and Currents Weather Stations Pressure Air Temp Water Temp Dewpoint Dewpoint Depression Visibility Wind Speed Wind Dir Waves Ship Positions

Kota Cantik

Last reported at 2017-Dec-15 05:18 UTC. Time now 2017-Dec-18 07:06 UTC.
Position N 31°13' E 122°07'.

Length 301 m; draft 11.4 m.

Type: Cargo ship. MMSI: 566658000.

Date/timePositionNaut miles runAvg speedWind from/ knotsBaromVisibWave heightAir tempDewpointWater temp
2017-Dec-15 05:18N 31°13' E 122°07'714.6
2017-Dec-15 04:49N 31°15' E 121°59'514.6
2017-Dec-15 04:30N 31°16' E 121°54'714.4
2017-Dec-15 04:00N 31°18' E 121°46'11 6.2
2017-Dec-15 02:18N 31°23' E 121°35'0 0.0
2017-Dec-15 00:51N 31°23' E 121°35'0 0.0
2017-Dec-14 18:30N 31°23' E 121°35'0 0.0
2017-Dec-14 18:00N 31°23' E 121°35'0 0.0
2017-Dec-14 17:06N 31°23' E 121°35'0 0.1
2017-Dec-14 16:54N 31°23' E 121°35'0 0.0
2017-Dec-14 16:12N 31°23' E 121°35'0 0.0
2017-Dec-14 16:00N 31°23' E 121°35'0 0.0
2017-Dec-14 15:00N 31°23' E 121°35'0 0.0
2017-Dec-14 14:30N 31°23' E 121°35'0 0.0
2017-Dec-14 14:00N 31°23' E 121°35'0 0.0
2017-Dec-14 13:27N 31°23' E 121°35'0 0.0
2017-Dec-14 12:54N 31°23' E 121°35'0 0.0
2017-Dec-14 12:18N 31°23' E 121°35'0 0.0
2017-Dec-14 12:00N 31°23' E 121°35'0 0.0
2017-Dec-14 11:24N 31°23' E 121°35'0 0.0
2017-Dec-14 09:51N 31°23' E 121°35'0 0.0
2017-Dec-14 09:12N 31°23' E 121°35'0 0.0
2017-Dec-14 08:48N 31°23' E 121°35'0 0.0
2017-Dec-14 08:30N 31°23' E 121°35'0 0.0
2017-Dec-14 08:00N 31°23' E 121°35'0 0.0
2017-Dec-14 07:21N 31°23' E 121°35'0 0.0
2017-Dec-14 06:54N 31°23' E 121°35'0 0.0
2017-Dec-14 06:30N 31°23' E 121°35'0 0.0
2017-Dec-14 05:51N 31°23' E 121°35'0 0.0
2017-Dec-14 05:18N 31°23' E 121°35'0 0.0
2017-Dec-14 04:12N 31°23' E 121°35'0 0.0
2017-Dec-14 03:48N 31°23' E 121°35'0 0.0
2017-Dec-14 03:24N 31°23' E 121°35'0 0.0
2017-Dec-14 02:00N 31°23' E 121°35'0 0.0
2017-Dec-14 01:30N 31°23' E 121°35'0 0.6
2017-Dec-14 01:00N 31°23' E 121°35'2 3.9
2017-Dec-14 00:30N 31°22' E 121°37'5 9.7
2017-Dec-14 00:00N 31°20' E 121°42'4 9.0
2017-Dec-13 23:30N 31°18' E 121°46'510.4
2017-Dec-13 23:00N 31°16' E 121°52'510.4
2017-Dec-13 22:30N 31°15' E 121°58'510.3
2017-Dec-13 22:00N 31°14' E 122°04'510.3
2017-Dec-13 21:30N 31°12' E 122°09'510.0
2017-Dec-13 21:00N 31°09' E 122°14'4 9.1
2017-Dec-13 20:30N 31°06' E 122°18'6 9.1
2017-Dec-13 19:52N 31°07' E 122°25'3 7.6
2017-Dec-13 19:29N 31°07' E 122°28'5 8.7
2017-Dec-13 18:53N 31°07' E 122°35'  
2017-Dec-07 01:14N 41°15' E 140°08'418.7
2017-Dec-07 01:00N 41°18' E 140°13'918.3
2017-Dec-07 00:30N 41°24' E 140°22'917.1
2017-Dec-07 00:00N 41°29' E 140°31'1019.3
2017-Dec-06 23:30N 41°34' E 140°42'917.7
2017-Dec-06 23:00N 41°38' E 140°53'817.0
2017-Dec-06 22:30N 41°37' E 141°04'1019.5
2017-Dec-06 22:01N 41°38' E 141°17'918.6
2017-Dec-06 21:30N 41°39' E 141°30'918.1
2017-Dec-06 20:59N 41°39' E 141°42'  
Track history (hours):
 
Tides and Currents Weather Stations Pressure Air Temp Water Temp Dewpoint Dewpoint Depression Visibility Wind Speed Wind Dir Waves Ship Positions

Kota Cantik

Last reported at 2017-Dec-15 05:18 UTC. Time now 2017-Dec-18 07:06 UTC.
Position N 31°13' E 122°07'.

Length 301 m; draft 11.4 m.

Type: Cargo ship. MMSI: 566658000.

Date/timePositionNaut miles runAvg speedWind from/ knotsBaromVisibWave heightAir tempDewpointWater temp
2017-Dec-15 05:18N 31°13' E 122°07'714.6
2017-Dec-15 04:49N 31°15' E 121°59'514.6
2017-Dec-15 04:30N 31°16' E 121°54'714.4
2017-Dec-15 04:00N 31°18' E 121°46'11 6.2
2017-Dec-15 02:18N 31°23' E 121°35'0 0.0
2017-Dec-15 00:51N 31°23' E 121°35'0 0.0
2017-Dec-14 18:30N 31°23' E 121°35'0 0.0
2017-Dec-14 18:00N 31°23' E 121°35'0 0.0
2017-Dec-14 17:06N 31°23' E 121°35'0 0.1
2017-Dec-14 16:54N 31°23' E 121°35'0 0.0
2017-Dec-14 16:12N 31°23' E 121°35'0 0.0
2017-Dec-14 16:00N 31°23' E 121°35'0 0.0
2017-Dec-14 15:00N 31°23' E 121°35'0 0.0
2017-Dec-14 14:30N 31°23' E 121°35'0 0.0
2017-Dec-14 14:00N 31°23' E 121°35'0 0.0
2017-Dec-14 13:27N 31°23' E 121°35'0 0.0
2017-Dec-14 12:54N 31°23' E 121°35'0 0.0
2017-Dec-14 12:18N 31°23' E 121°35'0 0.0
2017-Dec-14 12:00N 31°23' E 121°35'0 0.0
2017-Dec-14 11:24N 31°23' E 121°35'0 0.0
2017-Dec-14 09:51N 31°23' E 121°35'0 0.0
2017-Dec-14 09:12N 31°23' E 121°35'0 0.0
2017-Dec-14 08:48N 31°23' E 121°35'0 0.0
2017-Dec-14 08:30N 31°23' E 121°35'0 0.0
2017-Dec-14 08:00N 31°23' E 121°35'0 0.0
2017-Dec-14 07:21N 31°23' E 121°35'0 0.0
2017-Dec-14 06:54N 31°23' E 121°35'0 0.0
2017-Dec-14 06:30N 31°23' E 121°35'0 0.0
2017-Dec-14 05:51N 31°23' E 121°35'0 0.0
2017-Dec-14 05:18N 31°23' E 121°35'0 0.0
2017-Dec-14 04:12N 31°23' E 121°35'0 0.0
2017-Dec-14 03:48N 31°23' E 121°35'0 0.0
2017-Dec-14 03:24N 31°23' E 121°35'0 0.0
2017-Dec-14 02:00N 31°23' E 121°35'0 0.0
2017-Dec-14 01:30N 31°23' E 121°35'0 0.6
2017-Dec-14 01:00N 31°23' E 121°35'2 3.9
2017-Dec-14 00:30N 31°22' E 121°37'5 9.7
2017-Dec-14 00:00N 31°20' E 121°42'4 9.0
2017-Dec-13 23:30N 31°18' E 121°46'510.4
2017-Dec-13 23:00N 31°16' E 121°52'510.4
2017-Dec-13 22:30N 31°15' E 121°58'510.3
2017-Dec-13 22:00N 31°14' E 122°04'510.3
2017-Dec-13 21:30N 31°12' E 122°09'510.0
2017-Dec-13 21:00N 31°09' E 122°14'4 9.1
2017-Dec-13 20:30N 31°06' E 122°18'6 9.1
2017-Dec-13 19:52N 31°07' E 122°25'3 7.6
2017-Dec-13 19:29N 31°07' E 122°28'5 8.7
2017-Dec-13 18:53N 31°07' E 122°35'  
2017-Dec-07 01:14N 41°15' E 140°08'418.7
2017-Dec-07 01:00N 41°18' E 140°13'918.3
2017-Dec-07 00:30N 41°24' E 140°22'917.1
2017-Dec-07 00:00N 41°29' E 140°31'1019.3
2017-Dec-06 23:30N 41°34' E 140°42'917.7
2017-Dec-06 23:00N 41°38' E 140°53'817.0
2017-Dec-06 22:30N 41°37' E 141°04'1019.5
2017-Dec-06 22:01N 41°38' E 141°17'918.6
2017-Dec-06 21:30N 41°39' E 141°30'918.1
2017-Dec-06 20:59N 41°39' E 141°42'  

Dump ship's entire track history